Aviation Digital Data Service (ADDS)

Output produced by METARs form (1433 UTC 22 May 2015)
found at http://aviationweather.gov/adds/metars/
 
KMBS 221123Z 2212/2312 30008KT P6SM SCT060 SCT100 
     FM221400 32012KT P6SM SKC 
     FM230000 VRB04KT P6SM SKC